sensor_id;sensor_type;location;lat;lon;timestamp;P1;durP1;ratioP1;P2;durP2;ratioP2
60239;SDS011;46102;39.012;-7.064;2023-06-26T00:00:25;5.63;;;4.18;;
60239;SDS011;46102;39.012;-7.064;2023-06-26T00:02:26;5.32;;;4.38;;
60239;SDS011;46102;39.012;-7.064;2023-06-26T00:04:26;6.60;;;4.20;;
60239;SDS011;46102;39.012;-7.064;2023-06-26T00:06:27;5.88;;;4.13;;
60239;SDS011;46102;39.012;-7.064;2023-06-26T00:08:28;4.47;;;4.07;;
60239;SDS011;46102;39.012;-7.064;2023-06-26T00:10:29;7.13;;;4.03;;
60239;SDS011;46102;39.012;-7.064;2023-06-26T00:12:30;9.15;;;4.45;;
60239;SDS011;46102;39.012;-7.064;2023-06-26T00:14:31;8.20;;;4.97;;
60239;SDS011;46102;39.012;-7.064;2023-06-26T00:16:32;7.43;;;5.07;;
60239;SDS011;46102;39.012;-7.064;2023-06-26T00:18:33;5.97;;;4.60;;
60239;SDS011;46102;39.012;-7.064;2023-06-26T00:20:34;5.50;;;4.32;;
60239;SDS011;46102;39.012;-7.064;2023-06-26T00:22:34;5.10;;;4.15;;
60239;SDS011;46102;39.012;-7.064;2023-06-26T00:24:35;4.25;;;3.78;;
60239;SDS011;46102;39.012;-7.064;2023-06-26T00:26:36;5.75;;;4.53;;
60239;SDS011;46102;39.012;-7.064;2023-06-26T00:28:36;6.43;;;4.07;;
60239;SDS011;46102;39.012;-7.064;2023-06-26T00:30:37;4.78;;;4.38;;
60239;SDS011;46102;39.012;-7.064;2023-06-26T00:32:38;7.18;;;4.32;;
60239;SDS011;46102;39.012;-7.064;2023-06-26T00:34:39;6.15;;;3.92;;
60239;SDS011;46102;39.012;-7.064;2023-06-26T00:36:40;5.88;;;4.18;;
60239;SDS011;46102;39.012;-7.064;2023-06-26T00:38:43;6.28;;;3.92;;
60239;SDS011;46102;39.012;-7.064;2023-06-26T00:40:44;4.90;;;4.10;;
60239;SDS011;46102;39.012;-7.064;2023-06-26T00:42:45;5.05;;;3.70;;
60239;SDS011;46102;39.012;-7.064;2023-06-26T00:44:48;7.32;;;4.40;;
60239;SDS011;46102;39.012;-7.064;2023-06-26T00:46:49;11.25;;;4.47;;
60239;SDS011;46102;39.012;-7.064;2023-06-26T00:48:50;7.55;;;3.90;;
60239;SDS011;46102;39.012;-7.064;2023-06-26T00:50:53;9.00;;;3.75;;
60239;SDS011;46102;39.012;-7.064;2023-06-26T00:52:54;7.15;;;3.92;;
60239;SDS011;46102;39.012;-7.064;2023-06-26T00:54:57;6.30;;;4.38;;
60239;SDS011;46102;39.012;-7.064;2023-06-26T00:56:58;5.72;;;3.60;;
60239;SDS011;46102;39.012;-7.064;2023-06-26T00:59:00;3.95;;;3.58;;
60239;SDS011;46102;39.012;-7.064;2023-06-26T01:01:01;6.75;;;4.32;;
60239;SDS011;46102;39.012;-7.064;2023-06-26T01:03:02;4.97;;;4.20;;
60239;SDS011;46102;39.012;-7.064;2023-06-26T01:05:03;5.40;;;3.55;;
60239;SDS011;46102;39.012;-7.064;2023-06-26T01:07:09;6.05;;;3.60;;
60239;SDS011;46102;39.012;-7.064;2023-06-26T01:09:09;7.75;;;3.50;;
60239;SDS011;46102;39.012;-7.064;2023-06-26T01:11:10;6.65;;;3.70;;
60239;SDS011;46102;39.012;-7.064;2023-06-26T01:13:13;5.47;;;3.83;;
60239;SDS011;46102;39.012;-7.064;2023-06-26T01:15:15;5.68;;;3.63;;
60239;SDS011;46102;39.012;-7.064;2023-06-26T01:17:15;5.75;;;3.70;;
60239;SDS011;46102;39.012;-7.064;2023-06-26T01:19:23;6.72;;;3.40;;
60239;SDS011;46102;39.012;-7.064;2023-06-26T01:21:29;9.27;;;3.92;;
60239;SDS011;46102;39.012;-7.064;2023-06-26T01:23:47;5.45;;;3.70;;
60239;SDS011;46102;39.012;-7.064;2023-06-26T01:28:08;5.50;;;3.67;;
60239;SDS011;46102;39.012;-7.064;2023-06-26T01:30:10;4.75;;;4.28;;
60239;SDS011;46102;39.012;-7.064;2023-06-26T01:32:12;4.20;;;3.80;;
60239;SDS011;46102;39.012;-7.064;2023-06-26T01:34:13;6.10;;;3.47;;
60239;SDS011;46102;39.012;-7.064;2023-06-26T01:36:15;6.43;;;4.28;;
60239;SDS011;46102;39.012;-7.064;2023-06-26T01:38:17;6.18;;;3.75;;
60239;SDS011;46102;39.012;-7.064;2023-06-26T01:40:22;6.85;;;4.18;;
60239;SDS011;46102;39.012;-7.064;2023-06-26T01:42:23;3.53;;;3.23;;
60239;SDS011;46102;39.012;-7.064;2023-06-26T01:44:28;5.25;;;3.47;;
60239;SDS011;46102;39.012;-7.064;2023-06-26T01:48:45;4.10;;;3.63;;
60239;SDS011;46102;39.012;-7.064;2023-06-26T01:50:52;4.80;;;3.35;;
60239;SDS011;46102;39.012;-7.064;2023-06-26T01:53:10;18.83;;;4.10;;
60239;SDS011;46102;39.012;-7.064;2023-06-26T01:55:32;4.38;;;3.22;;
60239;SDS011;46102;39.012;-7.064;2023-06-26T01:57:42;3.75;;;3.05;;
60239;SDS011;46102;39.012;-7.064;2023-06-26T01:59:46;9.15;;;4.07;;
60239;SDS011;46102;39.012;-7.064;2023-06-26T02:01:47;5.07;;;3.25;;
60239;SDS011;46102;39.012;-7.064;2023-06-26T02:03:48;6.53;;;3.50;;
60239;SDS011;46102;39.012;-7.064;2023-06-26T02:05:50;9.27;;;3.97;;
60239;SDS011;46102;39.012;-7.064;2023-06-26T02:07:51;5.63;;;3.75;;
60239;SDS011;46102;39.012;-7.064;2023-06-26T02:09:52;5.22;;;4.10;;
60239;SDS011;46102;39.012;-7.064;2023-06-26T02:11:53;8.88;;;3.90;;
60239;SDS011;46102;39.012;-7.064;2023-06-26T02:13:53;8.30;;;3.67;;
60239;SDS011;46102;39.012;-7.064;2023-06-26T02:15:54;6.45;;;3.80;;
60239;SDS011;46102;39.012;-7.064;2023-06-26T02:17:55;4.78;;;3.60;;
60239;SDS011;46102;39.012;-7.064;2023-06-26T02:19:56;4.57;;;3.60;;
60239;SDS011;46102;39.012;-7.064;2023-06-26T02:21:57;7.68;;;3.55;;
60239;SDS011;46102;39.012;-7.064;2023-06-26T02:23:58;6.78;;;3.80;;
60239;SDS011;46102;39.012;-7.064;2023-06-26T02:25:59;6.60;;;3.38;;
60239;SDS011;46102;39.012;-7.064;2023-06-26T02:28:00;3.58;;;3.17;;
60239;SDS011;46102;39.012;-7.064;2023-06-26T02:30:01;4.15;;;3.30;;
60239;SDS011;46102;39.012;-7.064;2023-06-26T02:32:02;6.13;;;3.70;;
60239;SDS011;46102;39.012;-7.064;2023-06-26T02:34:03;3.33;;;3.03;;
60239;SDS011;46102;39.012;-7.064;2023-06-26T02:36:04;7.57;;;3.50;;
60239;SDS011;46102;39.012;-7.064;2023-06-26T02:38:06;3.45;;;2.58;;
60239;SDS011;46102;39.012;-7.064;2023-06-26T02:40:07;6.43;;;3.53;;
60239;SDS011;46102;39.012;-7.064;2023-06-26T02:42:11;5.82;;;3.70;;
60239;SDS011;46102;39.012;-7.064;2023-06-26T02:44:12;6.43;;;3.78;;
60239;SDS011;46102;39.012;-7.064;2023-06-26T02:46:14;5.05;;;3.55;;
60239;SDS011;46102;39.012;-7.064;2023-06-26T02:48:14;5.80;;;3.47;;
60239;SDS011;46102;39.012;-7.064;2023-06-26T02:50:17;4.68;;;3.30;;
60239;SDS011;46102;39.012;-7.064;2023-06-26T02:52:36;6.35;;;3.20;;
60239;SDS011;46102;39.012;-7.064;2023-06-26T02:54:37;4.75;;;3.28;;
60239;SDS011;46102;39.012;-7.064;2023-06-26T02:56:39;5.22;;;3.28;;
60239;SDS011;46102;39.012;-7.064;2023-06-26T02:58:40;7.32;;;3.03;;
60239;SDS011;46102;39.012;-7.064;2023-06-26T03:00:40;9.20;;;3.72;;
60239;SDS011;46102;39.012;-7.064;2023-06-26T03:02:45;8.20;;;3.47;;
60239;SDS011;46102;39.012;-7.064;2023-06-26T03:06:50;3.47;;;3.15;;
60239;SDS011;46102;39.012;-7.064;2023-06-26T03:08:51;6.03;;;3.42;;
60239;SDS011;46102;39.012;-7.064;2023-06-26T03:10:53;7.07;;;3.40;;
60239;SDS011;46102;39.012;-7.064;2023-06-26T03:12:54;3.50;;;3.20;;
60239;SDS011;46102;39.012;-7.064;2023-06-26T03:14:55;6.78;;;3.33;;
60239;SDS011;46102;39.012;-7.064;2023-06-26T03:16:56;6.60;;;3.53;;
60239;SDS011;46102;39.012;-7.064;2023-06-26T03:18:59;8.20;;;3.45;;
60239;SDS011;46102;39.012;-7.064;2023-06-26T03:21:01;5.95;;;3.60;;
60239;SDS011;46102;39.012;-7.064;2023-06-26T03:23:02;10.85;;;4.43;;
60239;SDS011;46102;39.012;-7.064;2023-06-26T03:25:03;5.60;;;3.72;;
60239;SDS011;46102;39.012;-7.064;2023-06-26T03:27:06;5.88;;;3.35;;
60239;SDS011;46102;39.012;-7.064;2023-06-26T03:29:08;8.02;;;3.55;;
60239;SDS011;46102;39.012;-7.064;2023-06-26T03:31:09;6.20;;;3.53;;
60239;SDS011;46102;39.012;-7.064;2023-06-26T03:33:09;7.18;;;4.22;;
60239;SDS011;46102;39.012;-7.064;2023-06-26T03:35:11;5.35;;;3.58;;
60239;SDS011;46102;39.012;-7.064;2023-06-26T03:37:12;4.47;;;3.50;;
60239;SDS011;46102;39.012;-7.064;2023-06-26T03:39:13;4.00;;;3.05;;
60239;SDS011;46102;39.012;-7.064;2023-06-26T03:41:14;7.95;;;3.60;;
60239;SDS011;46102;39.012;-7.064;2023-06-26T03:43:15;6.35;;;3.88;;
60239;SDS011;46102;39.012;-7.064;2023-06-26T03:45:29;7.70;;;3.60;;
60239;SDS011;46102;39.012;-7.064;2023-06-26T03:47:30;7.53;;;3.90;;
60239;SDS011;46102;39.012;-7.064;2023-06-26T03:49:31;5.25;;;3.50;;
60239;SDS011;46102;39.012;-7.064;2023-06-26T03:51:32;6.35;;;3.55;;
60239;SDS011;46102;39.012;-7.064;2023-06-26T03:53:33;7.90;;;3.47;;
60239;SDS011;46102;39.012;-7.064;2023-06-26T03:55:34;6.45;;;3.30;;
60239;SDS011;46102;39.012;-7.064;2023-06-26T03:57:35;6.10;;;3.30;;
60239;SDS011;46102;39.012;-7.064;2023-06-26T03:59:36;6.72;;;3.70;;
60239;SDS011;46102;39.012;-7.064;2023-06-26T04:01:37;4.78;;;3.25;;
60239;SDS011;46102;39.012;-7.064;2023-06-26T04:03:39;6.82;;;3.50;;
60239;SDS011;46102;39.012;-7.064;2023-06-26T04:05:41;5.10;;;3.65;;
60239;SDS011;46102;39.012;-7.064;2023-06-26T04:07:42;5.25;;;3.75;;
60239;SDS011;46102;39.012;-7.064;2023-06-26T04:09:43;7.35;;;3.83;;
60239;SDS011;46102;39.012;-7.064;2023-06-26T04:11:43;6.15;;;3.60;;
60239;SDS011;46102;39.012;-7.064;2023-06-26T04:13:44;4.80;;;3.45;;
60239;SDS011;46102;39.012;-7.064;2023-06-26T04:15:45;6.95;;;3.83;;
60239;SDS011;46102;39.012;-7.064;2023-06-26T04:17:46;5.32;;;3.65;;
60239;SDS011;46102;39.012;-7.064;2023-06-26T04:19:46;5.25;;;3.55;;
60239;SDS011;46102;39.012;-7.064;2023-06-26T04:21:47;5.47;;;3.63;;
60239;SDS011;46102;39.012;-7.064;2023-06-26T04:23:48;7.60;;;4.07;;
60239;SDS011;46102;39.012;-7.064;2023-06-26T04:25:49;4.03;;;2.85;;
60239;SDS011;46102;39.012;-7.064;2023-06-26T04:27:49;10.18;;;4.07;;
60239;SDS011;46102;39.012;-7.064;2023-06-26T04:29:50;4.10;;;2.85;;
60239;SDS011;46102;39.012;-7.064;2023-06-26T04:31:51;5.07;;;3.30;;
60239;SDS011;46102;39.012;-7.064;2023-06-26T04:33:52;8.35;;;3.92;;
60239;SDS011;46102;39.012;-7.064;2023-06-26T04:35:54;7.07;;;3.90;;
60239;SDS011;46102;39.012;-7.064;2023-06-26T04:37:55;5.22;;;3.35;;
60239;SDS011;46102;39.012;-7.064;2023-06-26T04:39:56;4.70;;;3.83;;
60239;SDS011;46102;39.012;-7.064;2023-06-26T04:41:57;6.00;;;3.60;;
60239;SDS011;46102;39.012;-7.064;2023-06-26T04:43:57;6.50;;;3.63;;
60239;SDS011;46102;39.012;-7.064;2023-06-26T04:45:58;9.20;;;4.07;;
60239;SDS011;46102;39.012;-7.064;2023-06-26T04:47:59;6.63;;;4.05;;
60239;SDS011;46102;39.012;-7.064;2023-06-26T04:50:02;6.55;;;3.60;;
60239;SDS011;46102;39.012;-7.064;2023-06-26T04:52:03;8.00;;;3.55;;
60239;SDS011;46102;39.012;-7.064;2023-06-26T04:54:04;8.43;;;3.35;;
60239;SDS011;46102;39.012;-7.064;2023-06-26T04:56:05;7.38;;;3.53;;
60239;SDS011;46102;39.012;-7.064;2023-06-26T04:58:06;4.88;;;3.80;;
60239;SDS011;46102;39.012;-7.064;2023-06-26T05:00:07;6.95;;;3.45;;
60239;SDS011;46102;39.012;-7.064;2023-06-26T05:02:11;5.13;;;3.53;;
60239;SDS011;46102;39.012;-7.064;2023-06-26T05:04:15;6.45;;;3.97;;
60239;SDS011;46102;39.012;-7.064;2023-06-26T05:06:16;9.25;;;3.72;;
60239;SDS011;46102;39.012;-7.064;2023-06-26T05:08:17;7.90;;;4.35;;
60239;SDS011;46102;39.012;-7.064;2023-06-26T05:10:22;4.10;;;3.65;;
60239;SDS011;46102;39.012;-7.064;2023-06-26T05:12:23;5.50;;;4.00;;
60239;SDS011;46102;39.012;-7.064;2023-06-26T05:14:24;13.00;;;3.47;;
60239;SDS011;46102;39.012;-7.064;2023-06-26T05:16:25;8.50;;;3.88;;
60239;SDS011;46102;39.012;-7.064;2023-06-26T05:18:26;9.57;;;3.50;;
60239;SDS011;46102;39.012;-7.064;2023-06-26T05:20:26;10.00;;;4.65;;
60239;SDS011;46102;39.012;-7.064;2023-06-26T05:22:27;10.68;;;3.92;;
60239;SDS011;46102;39.012;-7.064;2023-06-26T05:24:28;9.75;;;3.50;;
60239;SDS011;46102;39.012;-7.064;2023-06-26T05:26:30;8.35;;;4.00;;
60239;SDS011;46102;39.012;-7.064;2023-06-26T05:28:31;8.30;;;4.28;;
60239;SDS011;46102;39.012;-7.064;2023-06-26T05:30:32;5.85;;;3.00;;
60239;SDS011;46102;39.012;-7.064;2023-06-26T05:32:35;6.47;;;3.80;;
60239;SDS011;46102;39.012;-7.064;2023-06-26T05:34:37;9.30;;;4.15;;
60239;SDS011;46102;39.012;-7.064;2023-06-26T05:36:41;6.50;;;4.22;;
60239;SDS011;46102;39.012;-7.064;2023-06-26T05:38:43;7.73;;;3.50;;
60239;SDS011;46102;39.012;-7.064;2023-06-26T05:40:44;10.80;;;4.00;;
60239;SDS011;46102;39.012;-7.064;2023-06-26T05:42:46;7.38;;;3.92;;
60239;SDS011;46102;39.012;-7.064;2023-06-26T05:44:47;8.70;;;4.13;;
60239;SDS011;46102;39.012;-7.064;2023-06-26T05:46:47;10.13;;;4.28;;
60239;SDS011;46102;39.012;-7.064;2023-06-26T05:48:48;8.18;;;3.67;;
60239;SDS011;46102;39.012;-7.064;2023-06-26T05:50:49;8.02;;;4.72;;
60239;SDS011;46102;39.012;-7.064;2023-06-26T05:52:51;5.85;;;3.28;;
60239;SDS011;46102;39.012;-7.064;2023-06-26T05:54:52;6.18;;;3.72;;
60239;SDS011;46102;39.012;-7.064;2023-06-26T05:56:55;9.82;;;4.22;;
60239;SDS011;46102;39.012;-7.064;2023-06-26T05:58:59;10.00;;;4.00;;
60239;SDS011;46102;39.012;-7.064;2023-06-26T06:01:01;11.43;;;4.57;;
60239;SDS011;46102;39.012;-7.064;2023-06-26T06:03:02;9.15;;;4.45;;
60239;SDS011;46102;39.012;-7.064;2023-06-26T06:05:03;5.63;;;4.25;;
60239;SDS011;46102;39.012;-7.064;2023-06-26T06:07:04;8.23;;;4.70;;
60239;SDS011;46102;39.012;-7.064;2023-06-26T06:09:05;7.70;;;4.13;;
60239;SDS011;46102;39.012;-7.064;2023-06-26T06:11:06;8.10;;;4.45;;
60239;SDS011;46102;39.012;-7.064;2023-06-26T06:13:07;11.85;;;5.05;;
60239;SDS011;46102;39.012;-7.064;2023-06-26T06:15:08;5.75;;;4.72;;
60239;SDS011;46102;39.012;-7.064;2023-06-26T06:17:08;9.07;;;4.80;;
60239;SDS011;46102;39.012;-7.064;2023-06-26T06:19:09;8.07;;;4.68;;
60239;SDS011;46102;39.012;-7.064;2023-06-26T06:21:13;6.60;;;4.30;;
60239;SDS011;46102;39.012;-7.064;2023-06-26T06:23:13;5.53;;;4.22;;
60239;SDS011;46102;39.012;-7.064;2023-06-26T06:25:14;7.57;;;4.47;;
60239;SDS011;46102;39.012;-7.064;2023-06-26T06:27:15;7.20;;;4.63;;
60239;SDS011;46102;39.012;-7.064;2023-06-26T06:29:16;7.28;;;5.15;;
60239;SDS011;46102;39.012;-7.064;2023-06-26T06:31:19;5.40;;;4.22;;
60239;SDS011;46102;39.012;-7.064;2023-06-26T06:33:20;5.63;;;3.88;;
60239;SDS011;46102;39.012;-7.064;2023-06-26T06:35:21;4.43;;;4.03;;
60239;SDS011;46102;39.012;-7.064;2023-06-26T06:37:22;4.10;;;3.55;;
60239;SDS011;46102;39.012;-7.064;2023-06-26T06:39:22;7.13;;;4.03;;
60239;SDS011;46102;39.012;-7.064;2023-06-26T06:41:23;5.65;;;3.40;;
60239;SDS011;46102;39.012;-7.064;2023-06-26T06:43:24;8.60;;;4.15;;
60239;SDS011;46102;39.012;-7.064;2023-06-26T06:45:24;4.90;;;4.22;;
60239;SDS011;46102;39.012;-7.064;2023-06-26T06:47:25;6.43;;;3.85;;
60239;SDS011;46102;39.012;-7.064;2023-06-26T06:49:26;8.25;;;4.05;;
60239;SDS011;46102;39.012;-7.064;2023-06-26T06:51:27;8.50;;;4.53;;
60239;SDS011;46102;39.012;-7.064;2023-06-26T06:53:27;6.70;;;4.68;;
60239;SDS011;46102;39.012;-7.064;2023-06-26T06:55:28;4.78;;;3.95;;
60239;SDS011;46102;39.012;-7.064;2023-06-26T06:57:29;9.98;;;4.32;;
60239;SDS011;46102;39.012;-7.064;2023-06-26T06:59:30;7.10;;;3.97;;
60239;SDS011;46102;39.012;-7.064;2023-06-26T07:01:30;4.93;;;3.92;;
60239;SDS011;46102;39.012;-7.064;2023-06-26T07:03:31;6.63;;;3.38;;
60239;SDS011;46102;39.012;-7.064;2023-06-26T07:05:32;4.00;;;3.42;;
60239;SDS011;46102;39.012;-7.064;2023-06-26T07:07:33;6.68;;;4.40;;
60239;SDS011;46102;39.012;-7.064;2023-06-26T07:09:34;8.00;;;4.20;;
60239;SDS011;46102;39.012;-7.064;2023-06-26T07:11:36;5.22;;;3.85;;
60239;SDS011;46102;39.012;-7.064;2023-06-26T07:13:37;5.30;;;4.05;;
60239;SDS011;46102;39.012;-7.064;2023-06-26T07:15:37;5.35;;;3.55;;
60239;SDS011;46102;39.012;-7.064;2023-06-26T07:17:38;6.80;;;3.85;;
60239;SDS011;46102;39.012;-7.064;2023-06-26T07:19:39;10.82;;;4.30;;
60239;SDS011;46102;39.012;-7.064;2023-06-26T07:21:40;6.07;;;4.00;;
60239;SDS011;46102;39.012;-7.064;2023-06-26T07:23:42;6.20;;;3.70;;
60239;SDS011;46102;39.012;-7.064;2023-06-26T07:25:43;16.15;;;5.00;;
60239;SDS011;46102;39.012;-7.064;2023-06-26T07:27:44;11.93;;;4.90;;
60239;SDS011;46102;39.012;-7.064;2023-06-26T07:29:45;10.18;;;5.35;;
60239;SDS011;46102;39.012;-7.064;2023-06-26T07:31:45;8.30;;;5.00;;
60239;SDS011;46102;39.012;-7.064;2023-06-26T07:33:46;6.28;;;4.15;;
60239;SDS011;46102;39.012;-7.064;2023-06-26T07:35:47;6.93;;;4.05;;
60239;SDS011;46102;39.012;-7.064;2023-06-26T07:37:48;7.97;;;4.45;;
60239;SDS011;46102;39.012;-7.064;2023-06-26T07:39:48;11.43;;;4.53;;
60239;SDS011;46102;39.012;-7.064;2023-06-26T07:41:49;6.75;;;4.55;;
60239;SDS011;46102;39.012;-7.064;2023-06-26T07:43:50;9.68;;;4.88;;
60239;SDS011;46102;39.012;-7.064;2023-06-26T07:45:51;10.13;;;5.00;;
60239;SDS011;46102;39.012;-7.064;2023-06-26T07:47:54;8.43;;;4.38;;
60239;SDS011;46102;39.012;-7.064;2023-06-26T07:49:55;6.88;;;4.38;;
60239;SDS011;46102;39.012;-7.064;2023-06-26T07:51:56;8.52;;;4.97;;
60239;SDS011;46102;39.012;-7.064;2023-06-26T07:53:56;5.50;;;4.40;;
60239;SDS011;46102;39.012;-7.064;2023-06-26T07:55:57;6.72;;;4.22;;
60239;SDS011;46102;39.012;-7.064;2023-06-26T07:57:58;7.35;;;4.80;;
60239;SDS011;46102;39.012;-7.064;2023-06-26T07:59:59;6.32;;;4.97;;
60239;SDS011;46102;39.012;-7.064;2023-06-26T08:01:59;5.35;;;4.57;;
60239;SDS011;46102;39.012;-7.064;2023-06-26T08:04:01;5.65;;;4.80;;
60239;SDS011;46102;39.012;-7.064;2023-06-26T08:06:02;4.55;;;4.13;;
60239;SDS011;46102;39.012;-7.064;2023-06-26T08:08:03;6.38;;;4.22;;
60239;SDS011;46102;39.012;-7.064;2023-06-26T08:10:04;6.18;;;4.70;;
60239;SDS011;46102;39.012;-7.064;2023-06-26T08:12:05;5.38;;;4.55;;
60239;SDS011;46102;39.012;-7.064;2023-06-26T08:14:07;5.85;;;4.53;;
60239;SDS011;46102;39.012;-7.064;2023-06-26T08:16:07;6.80;;;4.85;;
60239;SDS011;46102;39.012;-7.064;2023-06-26T08:18:08;4.93;;;4.47;;
60239;SDS011;46102;39.012;-7.064;2023-06-26T08:20:09;5.50;;;4.70;;
60239;SDS011;46102;39.012;-7.064;2023-06-26T08:22:11;6.43;;;5.40;;
60239;SDS011;46102;39.012;-7.064;2023-06-26T08:24:11;5.90;;;5.25;;
60239;SDS011;46102;39.012;-7.064;2023-06-26T08:26:13;6.35;;;4.70;;
60239;SDS011;46102;39.012;-7.064;2023-06-26T08:28:14;5.47;;;4.95;;
60239;SDS011;46102;39.012;-7.064;2023-06-26T08:30:15;5.95;;;4.80;;
60239;SDS011;46102;39.012;-7.064;2023-06-26T08:32:16;10.23;;;5.63;;
60239;SDS011;46102;39.012;-7.064;2023-06-26T08:34:17;6.60;;;5.20;;
60239;SDS011;46102;39.012;-7.064;2023-06-26T08:36:18;6.18;;;5.47;;
60239;SDS011;46102;39.012;-7.064;2023-06-26T08:38:19;7.00;;;5.97;;
60239;SDS011;46102;39.012;-7.064;2023-06-26T08:40:21;5.50;;;5.00;;
60239;SDS011;46102;39.012;-7.064;2023-06-26T08:42:22;7.03;;;5.88;;
60239;SDS011;46102;39.012;-7.064;2023-06-26T08:44:23;6.65;;;5.95;;
60239;SDS011;46102;39.012;-7.064;2023-06-26T08:46:25;12.82;;;6.57;;
60239;SDS011;46102;39.012;-7.064;2023-06-26T08:48:25;9.57;;;6.00;;
60239;SDS011;46102;39.012;-7.064;2023-06-26T08:50:30;8.70;;;6.35;;
60239;SDS011;46102;39.012;-7.064;2023-06-26T08:52:35;6.40;;;5.80;;
60239;SDS011;46102;39.012;-7.064;2023-06-26T08:54:42;9.30;;;6.22;;
60239;SDS011;46102;39.012;-7.064;2023-06-26T08:56:46;7.05;;;6.20;;
60239;SDS011;46102;39.012;-7.064;2023-06-26T08:58:49;8.77;;;6.50;;
60239;SDS011;46102;39.012;-7.064;2023-06-26T09:00:50;8.00;;;7.25;;
60239;SDS011;46102;39.012;-7.064;2023-06-26T09:02:52;7.43;;;6.40;;
60239;SDS011;46102;39.012;-7.064;2023-06-26T09:04:52;9.63;;;6.22;;
60239;SDS011;46102;39.012;-7.064;2023-06-26T09:06:54;11.65;;;6.35;;
60239;SDS011;46102;39.012;-7.064;2023-06-26T09:08:54;8.15;;;6.53;;
60239;SDS011;46102;39.012;-7.064;2023-06-26T09:10:55;6.82;;;6.05;;
60239;SDS011;46102;39.012;-7.064;2023-06-26T09:12:56;6.50;;;5.90;;
60239;SDS011;46102;39.012;-7.064;2023-06-26T09:14:58;9.57;;;6.10;;
60239;SDS011;46102;39.012;-7.064;2023-06-26T09:16:59;9.95;;;6.78;;
60239;SDS011;46102;39.012;-7.064;2023-06-26T09:19:00;10.38;;;6.45;;
60239;SDS011;46102;39.012;-7.064;2023-06-26T09:21:07;7.70;;;5.90;;
60239;SDS011;46102;39.012;-7.064;2023-06-26T09:23:09;9.32;;;6.70;;
60239;SDS011;46102;39.012;-7.064;2023-06-26T09:25:10;7.60;;;6.90;;
60239;SDS011;46102;39.012;-7.064;2023-06-26T09:27:11;7.47;;;6.35;;
60239;SDS011;46102;39.012;-7.064;2023-06-26T09:29:13;8.35;;;6.55;;
60239;SDS011;46102;39.012;-7.064;2023-06-26T09:31:15;10.48;;;6.90;;
60239;SDS011;46102;39.012;-7.064;2023-06-26T09:33:17;8.50;;;7.10;;
60239;SDS011;46102;39.012;-7.064;2023-06-26T09:35:19;7.97;;;6.80;;
60239;SDS011;46102;39.012;-7.064;2023-06-26T09:37:23;7.40;;;6.72;;
60239;SDS011;46102;39.012;-7.064;2023-06-26T09:39:25;7.07;;;6.45;;
60239;SDS011;46102;39.012;-7.064;2023-06-26T09:41:26;7.85;;;7.03;;
60239;SDS011;46102;39.012;-7.064;2023-06-26T09:43:27;8.63;;;6.68;;
60239;SDS011;46102;39.012;-7.064;2023-06-26T09:45:28;8.75;;;7.28;;
60239;SDS011;46102;39.012;-7.064;2023-06-26T09:47:31;9.57;;;6.20;;
60239;SDS011;46102;39.012;-7.064;2023-06-26T09:49:34;9.20;;;7.70;;
60239;SDS011;46102;39.012;-7.064;2023-06-26T09:51:35;8.90;;;6.72;;
60239;SDS011;46102;39.012;-7.064;2023-06-26T09:53:36;9.18;;;6.30;;
60239;SDS011;46102;39.012;-7.064;2023-06-26T09:55:37;10.52;;;7.25;;
60239;SDS011;46102;39.012;-7.064;2023-06-26T09:57:38;7.43;;;6.82;;
60239;SDS011;46102;39.012;-7.064;2023-06-26T09:59:41;8.55;;;6.97;;
60239;SDS011;46102;39.012;-7.064;2023-06-26T10:01:45;11.32;;;6.90;;
60239;SDS011;46102;39.012;-7.064;2023-06-26T10:03:47;11.90;;;6.45;;
60239;SDS011;46102;39.012;-7.064;2023-06-26T10:05:48;9.75;;;6.78;;
60239;SDS011;46102;39.012;-7.064;2023-06-26T10:07:50;9.75;;;7.38;;
60239;SDS011;46102;39.012;-7.064;2023-06-26T10:09:52;7.97;;;6.80;;
60239;SDS011;46102;39.012;-7.064;2023-06-26T10:11:58;9.20;;;7.40;;
60239;SDS011;46102;39.012;-7.064;2023-06-26T10:14:07;8.10;;;7.28;;
60239;SDS011;46102;39.012;-7.064;2023-06-26T10:16:09;10.45;;;6.68;;
60239;SDS011;46102;39.012;-7.064;2023-06-26T10:18:12;7.78;;;6.90;;
60239;SDS011;46102;39.012;-7.064;2023-06-26T10:20:14;8.90;;;7.63;;
60239;SDS011;46102;39.012;-7.064;2023-06-26T10:22:17;8.07;;;6.97;;
60239;SDS011;46102;39.012;-7.064;2023-06-26T10:24:23;9.70;;;7.70;;
60239;SDS011;46102;39.012;-7.064;2023-06-26T10:26:26;10.27;;;7.15;;
60239;SDS011;46102;39.012;-7.064;2023-06-26T10:28:29;7.88;;;7.18;;
60239;SDS011;46102;39.012;-7.064;2023-06-26T10:30:33;7.70;;;6.93;;
60239;SDS011;46102;39.012;-7.064;2023-06-26T10:32:35;8.85;;;6.95;;
60239;SDS011;46102;39.012;-7.064;2023-06-26T10:34:37;7.05;;;6.35;;
60239;SDS011;46102;39.012;-7.064;2023-06-26T10:36:38;7.88;;;7.07;;
60239;SDS011;46102;39.012;-7.064;2023-06-26T10:38:49;9.60;;;7.07;;
60239;SDS011;46102;39.012;-7.064;2023-06-26T10:40:55;8.23;;;6.82;;
60239;SDS011;46102;39.012;-7.064;2023-06-26T10:43:05;7.93;;;6.57;;
60239;SDS011;46102;39.012;-7.064;2023-06-26T10:45:08;9.18;;;6.97;;
60239;SDS011;46102;39.012;-7.064;2023-06-26T10:49:29;8.75;;;7.05;;
60239;SDS011;46102;39.012;-7.064;2023-06-26T10:51:30;7.07;;;6.57;;
60239;SDS011;46102;39.012;-7.064;2023-06-26T10:53:31;9.00;;;6.97;;
60239;SDS011;46102;39.012;-7.064;2023-06-26T10:55:35;6.70;;;6.10;;
60239;SDS011;46102;39.012;-7.064;2023-06-26T10:57:37;7.50;;;6.53;;
60239;SDS011;46102;39.012;-7.064;2023-06-26T10:59:39;7.97;;;6.10;;
60239;SDS011;46102;39.012;-7.064;2023-06-26T11:01:41;6.53;;;5.97;;
60239;SDS011;46102;39.012;-7.064;2023-06-26T11:03:46;6.30;;;5.72;;
60239;SDS011;46102;39.012;-7.064;2023-06-26T11:06:08;5.90;;;5.38;;
60239;SDS011;46102;39.012;-7.064;2023-06-26T11:08:11;6.53;;;5.93;;
60239;SDS011;46102;39.012;-7.064;2023-06-26T11:10:14;9.98;;;6.22;;
60239;SDS011;46102;39.012;-7.064;2023-06-26T11:12:33;6.30;;;5.68;;
60239;SDS011;46102;39.012;-7.064;2023-06-26T11:14:34;9.82;;;6.40;;
60239;SDS011;46102;39.012;-7.064;2023-06-26T11:16:35;6.28;;;5.78;;
60239;SDS011;46102;39.012;-7.064;2023-06-26T11:18:37;8.52;;;6.00;;
60239;SDS011;46102;39.012;-7.064;2023-06-26T11:20:38;8.57;;;5.90;;
60239;SDS011;46102;39.012;-7.064;2023-06-26T11:22:40;6.75;;;6.13;;
60239;SDS011;46102;39.012;-7.064;2023-06-26T11:24:42;6.10;;;5.57;;
60239;SDS011;46102;39.012;-7.064;2023-06-26T11:26:44;11.90;;;6.70;;
60239;SDS011;46102;39.012;-7.064;2023-06-26T11:28:46;8.90;;;6.03;;
60239;SDS011;46102;39.012;-7.064;2023-06-26T11:30:52;7.40;;;6.78;;
60239;SDS011;46102;39.012;-7.064;2023-06-26T11:33:01;7.53;;;6.75;;
60239;SDS011;46102;39.012;-7.064;2023-06-26T11:35:03;7.55;;;6.70;;
60239;SDS011;46102;39.012;-7.064;2023-06-26T11:37:05;7.15;;;6.55;;
60239;SDS011;46102;39.012;-7.064;2023-06-26T11:39:06;6.97;;;6.35;;
60239;SDS011;46102;39.012;-7.064;2023-06-26T11:41:07;9.43;;;6.72;;
60239;SDS011;46102;39.012;-7.064;2023-06-26T11:43:09;6.65;;;6.05;;
60239;SDS011;46102;39.012;-7.064;2023-06-26T11:45:10;6.55;;;5.95;;
60239;SDS011;46102;39.012;-7.064;2023-06-26T11:47:14;8.65;;;6.65;;
60239;SDS011;46102;39.012;-7.064;2023-06-26T11:49:16;8.63;;;6.20;;
60239;SDS011;46102;39.012;-7.064;2023-06-26T11:51:17;9.23;;;6.30;;
60239;SDS011;46102;39.012;-7.064;2023-06-26T11:53:18;6.43;;;5.90;;
60239;SDS011;46102;39.012;-7.064;2023-06-26T11:55:19;7.35;;;6.70;;
60239;SDS011;46102;39.012;-7.064;2023-06-26T11:57:20;7.32;;;6.45;;
60239;SDS011;46102;39.012;-7.064;2023-06-26T11:59:21;6.75;;;6.10;;
60239;SDS011;46102;39.012;-7.064;2023-06-26T12:01:21;7.35;;;6.05;;
60239;SDS011;46102;39.012;-7.064;2023-06-26T12:03:23;6.18;;;5.57;;
60239;SDS011;46102;39.012;-7.064;2023-06-26T12:05:23;8.23;;;6.65;;
60239;SDS011;46102;39.012;-7.064;2023-06-26T12:07:25;7.47;;;6.72;;
60239;SDS011;46102;39.012;-7.064;2023-06-26T12:09:25;10.00;;;6.40;;
60239;SDS011;46102;39.012;-7.064;2023-06-26T12:11:27;6.78;;;6.20;;